Terminal Aerodrome Forecast
Issued by NWS

Home | Current Version | Previous Version | Text Only | Print | Product List | Glossary On
Versions: 1 2 3 4 5 6 7 8 9 10 11 12 13 14 15 16 17 18 19 20
000
FTUS41 KILN 211700
TAFLUK
TAF
KLUK 211736Z 2118/2218 11005KT P6SM SCT020 SCT250
      TEMPO 2209/2212 00000KT BKN030
     FM221200 12005KT P6SM BKN025=

USA.gov is the U.S. government's official web portal to all federal, state and local government web resources and services.